createdAt,value
2019-03-21T12:58:46.824Z,12.20
2019-03-21T13:01:34.946Z,11.90
2019-03-21T13:04:03.992Z,12.10
2019-03-21T13:06:33.032Z,12.00
2019-03-21T13:09:05.984Z,12.00
2019-03-21T13:11:34.784Z,12.00
2019-03-21T13:14:05.245Z,12.40
2019-03-21T13:16:33.963Z,12.10
2019-03-21T13:19:02.720Z,12.10
2019-03-21T13:21:31.825Z,12.00
2019-03-21T13:24:00.585Z,12.00
2019-03-21T13:26:29.472Z,11.90
2019-03-21T13:29:00.104Z,12.00
2019-03-21T13:31:28.184Z,12.10
2019-03-21T13:34:01.164Z,12.10
2019-03-21T13:36:31.564Z,12.10
2019-03-21T13:39:00.525Z,12.00
2019-03-21T13:41:31.863Z,12.00
2019-03-21T13:44:02.985Z,11.90
2019-03-21T13:46:34.704Z,11.80
2019-03-21T13:49:05.791Z,11.60
2019-03-21T13:51:34.304Z,11.80
2019-03-21T13:54:08.573Z,11.90
2019-03-21T13:56:38.256Z,12.00
2019-03-21T13:59:10.429Z,12.10
2019-03-21T14:01:42.765Z,12.20
2019-03-21T14:04:11.544Z,12.00
2019-03-21T14:06:43.133Z,12.10
2019-03-21T14:09:11.984Z,12.10
2019-03-21T14:11:46.445Z,12.20
2019-03-21T14:14:17.886Z,12.50
2019-03-21T14:16:46.684Z,12.40
2019-03-21T14:19:17.964Z,12.60
2019-03-21T14:21:52.285Z,12.50
2019-03-21T14:24:22.685Z,12.20
2019-03-21T14:26:51.465Z,12.10
2019-03-21T14:29:20.344Z,12.00
2019-03-21T14:31:57.407Z,11.90
2019-03-21T14:34:26.270Z,11.90
2019-03-21T14:36:56.964Z,12.10
2019-03-21T14:39:25.105Z,12.20
2019-03-21T14:41:53.908Z,12.00
2019-03-21T14:44:22.744Z,12.20
2019-03-21T14:46:51.544Z,12.10
2019-03-21T14:49:20.367Z,11.70
2019-03-21T14:51:56.124Z,11.70
2019-03-21T14:54:25.524Z,11.50
2019-03-21T14:56:59.267Z,11.50
2019-03-21T14:59:33.444Z,11.60
2019-03-21T15:02:02.612Z,11.40
2019-03-21T15:04:31.404Z,11.20
2019-03-21T15:07:00.512Z,11.10
2019-03-21T15:09:29.364Z,11.10
2019-03-21T15:11:58.435Z,11.30
2019-03-21T15:14:32.103Z,11.40
2019-03-21T15:17:04.544Z,11.40
2019-03-21T15:19:33.404Z,11.30
2019-03-21T15:22:09.504Z,11.20
2019-03-21T15:24:39.644Z,11.10
2019-03-21T15:27:17.124Z,10.80
2019-03-21T15:29:51.261Z,11.10
2019-03-21T15:32:23.384Z,10.80
2019-03-21T15:34:52.264Z,11.10
2019-03-21T15:37:21.026Z,10.80
2019-03-21T15:39:49.784Z,10.60
2019-03-21T15:42:18.744Z,10.70
2019-03-21T15:44:51.666Z,10.70
2019-03-21T15:47:20.206Z,10.60
2019-03-21T15:49:49.087Z,10.50
2019-03-21T15:52:18.134Z,10.20
2019-03-21T15:54:50.266Z,9.90
2019-03-21T15:57:23.214Z,10.20
2019-03-21T15:59:54.948Z,9.70
2019-03-21T16:02:23.653Z,9.70
2019-03-21T16:07:47.686Z,9.60
2019-03-21T16:10:17.638Z,9.50
2019-03-21T16:12:46.426Z,9.40
2019-03-21T16:15:18.291Z,9.40
2019-03-21T16:18:02.086Z,9.30
2019-03-21T16:24:05.140Z,8.80
2019-03-21T16:29:57.944Z,8.70
2019-03-21T16:32:54.168Z,8.80
